createdAt,value
2023-04-30T00:01:22.538Z,10.95
2023-04-30T00:03:49.382Z,11.48
2023-04-30T00:06:16.144Z,10.80
2023-04-30T00:08:42.796Z,11.43
2023-04-30T00:11:09.404Z,11.80
2023-04-30T00:13:36.299Z,10.68
2023-04-30T00:16:03.021Z,11.15
2023-04-30T00:18:29.636Z,12.52
2023-04-30T00:20:56.245Z,11.57
2023-04-30T00:23:22.884Z,12.80
2023-04-30T00:25:49.506Z,12.10
2023-04-30T00:28:16.253Z,12.18
2023-04-30T00:30:42.861Z,13.63
2023-04-30T00:33:09.571Z,12.23
2023-04-30T00:35:36.213Z,12.52
2023-04-30T00:38:03.011Z,13.90
2023-04-30T00:40:29.868Z,13.50
2023-04-30T00:42:56.597Z,13.77
2023-04-30T00:45:23.557Z,14.02
2023-04-30T00:47:50.545Z,14.52
2023-04-30T00:50:17.374Z,15.50
2023-04-30T00:52:44.648Z,16.90
2023-04-30T00:55:14.315Z,16.23
2023-04-30T00:57:41.105Z,20.00
2023-04-30T01:00:11.518Z,17.73
2023-04-30T01:02:38.592Z,18.13
2023-04-30T01:05:06.277Z,16.92
2023-04-30T01:07:34.621Z,17.15
2023-04-30T01:10:01.808Z,18.23
2023-04-30T01:12:37.261Z,18.40
2023-04-30T01:15:19.049Z,16.75
2023-04-30T01:17:54.413Z,17.60
2023-04-30T01:20:21.440Z,18.80
2023-04-30T01:23:29.616Z,18.17
2023-04-30T01:26:35.876Z,18.90
2023-04-30T01:29:04.503Z,17.95
2023-04-30T01:31:31.396Z,18.85
2023-04-30T01:33:58.029Z,18.08
2023-04-30T01:36:45.890Z,19.70
2023-04-30T01:39:37.402Z,19.02
2023-04-30T01:42:03.952Z,17.13
2023-04-30T01:44:58.403Z,18.27
2023-04-30T01:47:35.638Z,19.45
2023-04-30T01:50:41.536Z,18.33
2023-04-30T01:53:13.975Z,17.60
2023-04-30T01:55:50.122Z,19.00
2023-04-30T01:58:16.938Z,18.38
2023-04-30T02:00:43.532Z,17.25
2023-04-30T02:03:10.267Z,16.40
2023-04-30T02:05:36.993Z,17.90
2023-04-30T02:08:03.748Z,16.67
2023-04-30T02:10:30.738Z,17.30
2023-04-30T02:12:57.621Z,17.65
2023-04-30T02:15:24.396Z,17.33
2023-04-30T02:17:51.287Z,17.00
2023-04-30T02:20:17.938Z,16.50
2023-04-30T02:22:44.613Z,15.40
2023-04-30T02:25:12.737Z,15.75
2023-04-30T02:27:39.618Z,15.77
2023-04-30T02:30:06.879Z,16.15
2023-04-30T02:32:33.655Z,15.32
2023-04-30T02:35:00.420Z,15.18
2023-04-30T02:37:27.083Z,16.20
2023-04-30T02:39:54.195Z,15.48
2023-04-30T02:42:21.303Z,15.32
2023-04-30T02:44:47.953Z,13.13
2023-04-30T02:47:15.173Z,13.98
2023-04-30T02:49:41.875Z,14.57
2023-04-30T02:52:09.998Z,12.57
2023-04-30T02:54:36.704Z,13.85
2023-04-30T02:57:03.560Z,12.20
2023-04-30T02:59:30.398Z,12.60
2023-04-30T03:01:57.155Z,11.23
2023-04-30T03:04:23.769Z,11.38
2023-04-30T03:06:50.776Z,11.70
2023-04-30T03:09:18.024Z,10.90
2023-04-30T03:11:44.784Z,10.82
2023-04-30T03:14:11.676Z,11.63
2023-04-30T03:16:38.377Z,11.20
2023-04-30T03:19:05.038Z,11.73
2023-04-30T03:21:31.641Z,12.13
2023-04-30T03:23:58.260Z,11.40
2023-04-30T03:26:24.977Z,12.77
2023-04-30T03:28:51.605Z,11.05
2023-04-30T03:31:18.300Z,11.55
2023-04-30T03:33:44.994Z,13.10
2023-04-30T03:36:11.856Z,11.98
2023-04-30T03:38:38.445Z,12.02
2023-04-30T03:41:05.546Z,12.07
2023-04-30T03:43:32.203Z,11.82
2023-04-30T03:45:58.873Z,12.27
2023-04-30T03:48:25.512Z,12.27
2023-04-30T03:50:52.128Z,12.82
2023-04-30T03:53:18.743Z,11.85
2023-04-30T03:55:45.497Z,11.13
2023-04-30T03:58:12.255Z,11.75
2023-04-30T04:00:41.687Z,11.90
2023-04-30T04:03:08.448Z,11.77
2023-04-30T04:05:35.112Z,11.60
2023-04-30T04:08:01.744Z,13.45
2023-04-30T04:10:28.710Z,12.90
2023-04-30T04:12:55.561Z,12.95
2023-04-30T04:15:22.255Z,13.57
2023-04-30T04:17:49.156Z,12.18
2023-04-30T04:20:16.013Z,14.15
2023-04-30T04:22:42.647Z,11.68
2023-04-30T04:25:09.941Z,11.50
2023-04-30T04:27:36.723Z,11.57
2023-04-30T04:30:04.082Z,11.25
2023-04-30T04:32:32.761Z,11.88
2023-04-30T04:34:59.564Z,11.98
2023-04-30T04:37:26.295Z,10.85
2023-04-30T04:39:53.243Z,10.63
2023-04-30T04:42:20.620Z,11.70
2023-04-30T04:44:47.256Z,11.27
2023-04-30T04:47:13.882Z,11.18
2023-04-30T04:49:40.865Z,12.73
2023-04-30T04:52:07.560Z,11.38
2023-04-30T04:54:34.597Z,11.02
2023-04-30T04:57:01.343Z,10.57
2023-04-30T04:59:27.994Z,11.50
2023-04-30T05:01:54.876Z,10.88
2023-04-30T05:04:21.538Z,10.25
2023-04-30T05:06:48.244Z,10.05
2023-04-30T05:09:14.979Z,10.32
2023-04-30T05:11:41.781Z,9.98
2023-04-30T05:14:08.432Z,11.00
2023-04-30T05:16:35.176Z,12.05
2023-04-30T05:19:01.821Z,10.45
2023-04-30T05:21:29.859Z,12.48
2023-04-30T05:23:56.542Z,12.45
2023-04-30T05:26:24.501Z,11.98
2023-04-30T05:28:52.475Z,12.25
2023-04-30T05:31:20.910Z,11.15
2023-04-30T05:33:48.073Z,10.77
2023-04-30T05:36:15.114Z,9.75
2023-04-30T05:38:42.072Z,11.50
2023-04-30T05:41:11.844Z,11.15
2023-04-30T05:43:38.481Z,10.80
2023-04-30T05:46:05.332Z,11.40
2023-04-30T05:48:32.143Z,10.80
2023-04-30T05:50:58.755Z,10.38
2023-04-30T05:53:25.382Z,12.38
2023-04-30T05:55:52.122Z,11.82
2023-04-30T05:58:19.029Z,11.60
2023-04-30T06:00:50.506Z,11.25
2023-04-30T06:03:17.180Z,11.20
2023-04-30T06:05:44.544Z,11.00
2023-04-30T06:08:11.244Z,12.45
2023-04-30T06:10:38.893Z,12.60
2023-04-30T06:13:06.407Z,11.98
2023-04-30T06:15:33.344Z,11.82
2023-04-30T06:18:00.904Z,10.55
2023-04-30T06:20:28.954Z,11.77
2023-04-30T06:23:01.371Z,11.57
2023-04-30T06:25:28.986Z,10.85
2023-04-30T06:27:55.910Z,11.40
2023-04-30T06:30:22.553Z,11.38
2023-04-30T06:32:49.237Z,12.18
2023-04-30T06:35:15.936Z,11.13
2023-04-30T06:37:43.098Z,11.52
2023-04-30T06:40:12.436Z,11.82
2023-04-30T06:42:42.650Z,11.18
2023-04-30T06:45:22.296Z,11.45
2023-04-30T06:47:49.173Z,12.73
2023-04-30T06:50:16.039Z,12.85
2023-04-30T06:52:42.981Z,10.68
2023-04-30T06:55:09.869Z,12.30
2023-04-30T06:57:37.571Z,12.85
2023-04-30T07:00:08.782Z,12.50
2023-04-30T07:02:36.119Z,14.95
2023-04-30T07:05:03.196Z,13.05
2023-04-30T07:07:29.850Z,11.93
2023-04-30T07:09:58.804Z,14.00
2023-04-30T07:12:28.481Z,12.98
2023-04-30T07:14:56.915Z,11.27
2023-04-30T07:17:32.194Z,14.85
2023-04-30T07:19:59.746Z,12.32
2023-04-30T07:22:27.894Z,14.57
2023-04-30T07:24:54.504Z,13.45
2023-04-30T07:27:21.639Z,13.82
2023-04-30T07:29:48.562Z,13.13
2023-04-30T07:32:16.483Z,15.15
2023-04-30T07:34:43.217Z,13.38
2023-04-30T07:37:10.079Z,14.25
2023-04-30T07:39:39.725Z,13.85
2023-04-30T07:42:06.818Z,13.95
2023-04-30T07:44:33.858Z,13.27
2023-04-30T07:47:00.883Z,13.93
2023-04-30T07:49:29.050Z,12.52
2023-04-30T07:51:56.598Z,13.48
2023-04-30T07:54:23.545Z,12.52
2023-04-30T07:56:50.163Z,13.90
2023-04-30T07:59:17.700Z,13.18
2023-04-30T08:01:44.806Z,13.25
2023-04-30T08:04:11.550Z,12.93
2023-04-30T08:06:38.279Z,13.05
2023-04-30T08:09:04.957Z,13.93
2023-04-30T08:11:31.556Z,12.07
2023-04-30T08:13:58.174Z,12.57
2023-04-30T08:16:24.939Z,11.95
2023-04-30T08:18:51.773Z,12.38
2023-04-30T08:21:18.500Z,13.23
2023-04-30T08:23:45.109Z,12.88
2023-04-30T08:26:11.778Z,11.63
2023-04-30T08:28:38.342Z,11.55
2023-04-30T08:31:05.154Z,13.52
2023-04-30T08:33:32.107Z,12.50
2023-04-30T08:35:59.871Z,12.32
2023-04-30T08:38:28.259Z,12.40
2023-04-30T08:41:14.152Z,12.45
2023-04-30T08:43:41.861Z,13.88
2023-04-30T08:46:08.822Z,12.57
2023-04-30T08:48:35.551Z,13.32
2023-04-30T08:51:04.251Z,13.88
2023-04-30T08:53:35.403Z,11.73
2023-04-30T08:56:03.103Z,12.48
2023-04-30T08:58:29.763Z,13.30
2023-04-30T09:00:59.714Z,11.95
2023-04-30T09:03:27.028Z,12.55
2023-04-30T09:05:54.869Z,12.60
2023-04-30T09:08:45.339Z,12.25
2023-04-30T09:11:22.988Z,13.15
2023-04-30T09:13:55.129Z,13.85
2023-04-30T09:16:22.888Z,13.68
2023-04-30T09:18:50.490Z,12.25
2023-04-30T09:21:17.382Z,11.93
2023-04-30T09:23:58.467Z,11.90
2023-04-30T09:26:33.258Z,12.05
2023-04-30T09:29:01.235Z,13.25
2023-04-30T09:31:27.935Z,12.50
2023-04-30T09:33:54.756Z,13.25
2023-04-30T09:36:21.518Z,11.75
2023-04-30T09:38:48.206Z,12.43
2023-04-30T09:41:26.795Z,12.65
2023-04-30T09:43:58.085Z,12.20
2023-04-30T09:46:33.171Z,11.23
2023-04-30T09:49:01.704Z,11.40
2023-04-30T09:51:29.189Z,12.27
2023-04-30T09:53:56.581Z,12.77
2023-04-30T09:56:26.059Z,12.23
2023-04-30T09:58:57.087Z,11.20
2023-04-30T10:01:28.001Z,11.57
2023-04-30T10:03:55.785Z,12.75
2023-04-30T10:06:24.252Z,11.50
2023-04-30T10:08:57.529Z,11.23
2023-04-30T10:11:31.325Z,12.88
2023-04-30T10:14:03.089Z,11.48
2023-04-30T10:16:48.462Z,11.90
2023-04-30T10:19:20.851Z,11.13
2023-04-30T10:21:47.963Z,11.73
2023-04-30T10:24:15.896Z,11.93
2023-04-30T10:26:43.600Z,11.57
2023-04-30T10:29:10.551Z,10.35
2023-04-30T10:31:40.567Z,9.85
2023-04-30T10:34:47.071Z,9.98
2023-04-30T10:37:42.741Z,10.45
2023-04-30T10:40:10.833Z,11.15
2023-04-30T10:42:39.012Z,10.88
2023-04-30T10:45:09.999Z,10.05
2023-04-30T10:47:37.843Z,9.98
2023-04-30T10:50:05.518Z,10.18
2023-04-30T10:52:32.222Z,10.77
2023-04-30T10:54:58.879Z,10.27
2023-04-30T10:57:29.702Z,8.30
2023-04-30T11:00:08.293Z,11.13
2023-04-30T11:02:45.341Z,9.75
2023-04-30T11:05:18.477Z,9.77
2023-04-30T11:07:56.385Z,9.60
2023-04-30T11:10:25.387Z,9.75
2023-04-30T11:12:54.126Z,9.80
2023-04-30T11:15:25.026Z,9.48
2023-04-30T11:17:56.472Z,9.82
2023-04-30T11:20:24.888Z,8.13
2023-04-30T11:23:11.121Z,9.40
2023-04-30T11:25:42.792Z,8.55
2023-04-30T11:28:14.311Z,11.15
2023-04-30T11:30:42.588Z,9.55
2023-04-30T11:33:11.803Z,7.93
2023-04-30T11:35:39.292Z,8.60
2023-04-30T11:38:08.647Z,9.25
2023-04-30T11:40:36.756Z,9.05
2023-04-30T11:43:03.580Z,8.45
2023-04-30T11:45:31.460Z,7.78
2023-04-30T11:47:58.182Z,8.90
2023-04-30T11:50:29.322Z,8.00
2023-04-30T11:52:58.498Z,8.32
2023-04-30T11:55:26.483Z,8.05
2023-04-30T11:57:55.952Z,8.30
2023-04-30T12:00:30.332Z,9.45
2023-04-30T12:03:00.160Z,8.30
2023-04-30T12:05:28.126Z,9.35
2023-04-30T12:08:01.053Z,9.15
2023-04-30T12:10:27.733Z,8.02
2023-04-30T12:12:55.381Z,9.10
2023-04-30T12:15:26.750Z,9.00
2023-04-30T12:17:56.365Z,9.95
2023-04-30T12:20:26.829Z,9.25
2023-04-30T12:22:53.910Z,7.75
2023-04-30T12:25:23.667Z,9.48
2023-04-30T12:27:52.464Z,9.77
2023-04-30T12:30:25.413Z,10.05
2023-04-30T12:32:54.742Z,9.13
2023-04-30T12:35:23.269Z,9.50
2023-04-30T12:37:52.214Z,11.18
2023-04-30T12:40:27.116Z,10.85
2023-04-30T12:43:02.357Z,10.88
2023-04-30T12:45:52.041Z,10.52
2023-04-30T12:48:24.346Z,10.02
2023-04-30T12:51:05.140Z,10.27
2023-04-30T12:53:32.128Z,11.05
2023-04-30T12:56:12.481Z,10.45
2023-04-30T12:58:40.027Z,9.05
2023-04-30T13:01:11.821Z,10.13
2023-04-30T13:03:39.462Z,10.57
2023-04-30T13:06:07.072Z,10.43
2023-04-30T13:08:45.673Z,9.85
2023-04-30T13:13:48.808Z,9.20
2023-04-30T13:16:15.442Z,8.63
2023-04-30T13:18:42.093Z,8.07
2023-04-30T13:21:09.334Z,8.57
2023-04-30T13:23:44.860Z,6.70
2023-04-30T13:26:18.918Z,7.65
2023-04-30T13:28:45.738Z,8.65
2023-04-30T13:31:12.366Z,8.95
2023-04-30T13:33:39.060Z,9.82
2023-04-30T13:36:05.980Z,8.07
2023-04-30T13:38:32.630Z,7.78
2023-04-30T13:41:00.666Z,8.10
2023-04-30T13:43:27.397Z,10.07
2023-04-30T13:45:54.078Z,8.77
2023-04-30T13:48:20.703Z,10.35
2023-04-30T13:50:47.383Z,10.35
2023-04-30T13:53:14.962Z,11.63
2023-04-30T13:55:42.138Z,10.15
2023-04-30T13:58:08.839Z,10.45
2023-04-30T14:00:35.433Z,11.50
2023-04-30T14:03:02.152Z,11.65
2023-04-30T14:05:28.930Z,11.73
2023-04-30T14:07:55.646Z,13.75
2023-04-30T14:10:22.329Z,11.50
2023-04-30T14:12:49.137Z,11.57
2023-04-30T14:15:16.492Z,11.35
2023-04-30T14:17:43.347Z,11.50
2023-04-30T14:20:11.331Z,11.88
2023-04-30T14:22:38.740Z,11.00
2023-04-30T14:25:06.185Z,11.60
2023-04-30T14:27:32.859Z,10.52
2023-04-30T14:29:59.678Z,11.68
2023-04-30T14:32:27.144Z,10.73
2023-04-30T14:34:54.005Z,10.25
2023-04-30T14:37:20.684Z,10.65
2023-04-30T14:39:47.267Z,11.48
2023-04-30T14:42:14.424Z,12.00
2023-04-30T14:44:41.557Z,12.50
2023-04-30T14:47:08.895Z,12.32
2023-04-30T14:49:36.519Z,12.57
2023-04-30T14:52:03.795Z,11.35
2023-04-30T14:54:31.077Z,13.35
2023-04-30T14:57:01.479Z,13.00
2023-04-30T14:59:28.578Z,13.95
2023-04-30T15:01:56.020Z,13.43
2023-04-30T15:04:24.982Z,12.40
2023-04-30T15:06:52.648Z,12.82
2023-04-30T15:09:19.929Z,15.20
2023-04-30T15:11:48.076Z,14.50
2023-04-30T15:14:20.091Z,14.18
2023-04-30T15:16:48.074Z,15.45
2023-04-30T15:19:15.831Z,15.55
2023-04-30T15:21:44.972Z,14.57
2023-04-30T15:24:14.660Z,14.82
2023-04-30T15:26:43.239Z,13.60
2023-04-30T15:29:20.146Z,14.38
2023-04-30T15:31:48.606Z,14.23
2023-04-30T15:34:16.902Z,12.95
2023-04-30T15:36:44.535Z,13.70
2023-04-30T15:39:13.051Z,15.25
2023-04-30T15:41:41.386Z,10.15
2023-04-30T15:44:09.756Z,7.90
2023-04-30T15:46:37.763Z,7.10
2023-04-30T15:49:06.151Z,7.32
2023-04-30T15:51:35.008Z,8.10
2023-04-30T15:54:03.470Z,7.85
2023-04-30T15:56:32.548Z,7.63
2023-04-30T15:59:01.099Z,7.43
2023-04-30T16:01:33.275Z,7.35
2023-04-30T16:04:02.939Z,7.00
2023-04-30T16:06:33.014Z,8.50
2023-04-30T16:09:07.494Z,8.30
2023-04-30T16:11:36.858Z,7.95
2023-04-30T16:14:05.228Z,8.35
2023-04-30T16:16:33.726Z,9.48
2023-04-30T16:19:02.223Z,7.80
2023-04-30T16:21:35.827Z,9.60
2023-04-30T16:24:09.746Z,8.38
2023-04-30T16:26:39.025Z,7.20
2023-04-30T16:29:17.394Z,7.93
2023-04-30T16:31:44.412Z,8.35
2023-04-30T16:34:12.182Z,9.13
2023-04-30T16:37:03.928Z,8.52
2023-04-30T16:39:42.095Z,9.30
2023-04-30T16:42:12.951Z,9.15
2023-04-30T16:44:43.083Z,9.45
2023-04-30T16:47:13.141Z,9.45
2023-04-30T16:49:41.164Z,8.10
2023-04-30T16:52:07.951Z,8.88
2023-04-30T16:54:35.670Z,9.27
2023-04-30T16:59:46.882Z,8.68
2023-04-30T17:02:26.207Z,9.30
2023-04-30T17:04:56.043Z,10.23
2023-04-30T17:07:22.861Z,9.20
2023-04-30T17:09:50.650Z,9.73
2023-04-30T17:12:56.727Z,10.05
2023-04-30T17:15:26.213Z,9.63
2023-04-30T17:18:03.318Z,10.05
2023-04-30T17:20:30.724Z,10.07
2023-04-30T17:22:59.620Z,11.10
2023-04-30T17:25:28.154Z,10.35
2023-04-30T17:28:10.717Z,10.35
2023-04-30T17:30:38.724Z,10.15
2023-04-30T17:33:06.209Z,10.55
2023-04-30T17:35:34.651Z,10.38
2023-04-30T17:38:02.317Z,10.05
2023-04-30T17:40:29.931Z,11.38
2023-04-30T17:42:57.622Z,10.40
2023-04-30T17:45:27.025Z,9.82
2023-04-30T17:47:55.455Z,9.90
2023-04-30T17:50:23.383Z,9.32
2023-04-30T17:52:50.848Z,10.95
2023-04-30T17:55:19.847Z,9.95
2023-04-30T17:57:59.800Z,10.63
2023-04-30T18:00:27.432Z,9.70
2023-04-30T18:02:58.053Z,9.75
2023-04-30T18:05:24.954Z,10.55
2023-04-30T18:07:51.609Z,10.07
2023-04-30T18:10:18.307Z,10.00
2023-04-30T18:12:45.891Z,9.80
2023-04-30T18:15:13.710Z,10.98
2023-04-30T18:17:42.690Z,10.77
2023-04-30T18:20:12.080Z,11.18
2023-04-30T18:22:43.542Z,10.77
2023-04-30T18:25:11.925Z,10.20
2023-04-30T18:27:40.018Z,11.15
2023-04-30T18:30:09.218Z,11.00
2023-04-30T18:32:37.325Z,9.85
2023-04-30T18:35:04.666Z,10.40
2023-04-30T18:37:31.998Z,10.50
2023-04-30T18:39:59.218Z,10.48
2023-04-30T18:42:26.114Z,10.32
2023-04-30T18:44:53.010Z,9.50
2023-04-30T18:47:19.720Z,9.63
2023-04-30T18:49:46.311Z,9.02
2023-04-30T18:52:12.956Z,10.95
2023-04-30T18:54:40.459Z,9.32
2023-04-30T18:57:07.977Z,10.00
2023-04-30T18:59:34.901Z,10.65
2023-04-30T19:02:01.954Z,9.55
2023-04-30T19:04:28.808Z,9.32
2023-04-30T19:06:55.948Z,10.98
2023-04-30T19:09:22.986Z,10.32
2023-04-30T19:11:50.257Z,10.32
2023-04-30T19:14:17.828Z,9.63
2023-04-30T19:16:44.768Z,10.52
2023-04-30T19:19:11.576Z,10.07
2023-04-30T19:21:38.272Z,10.18
2023-04-30T19:24:05.581Z,10.88
2023-04-30T19:26:32.552Z,11.48
2023-04-30T19:29:00.100Z,10.70
2023-04-30T19:31:26.961Z,10.57
2023-04-30T19:33:54.138Z,11.02
2023-04-30T19:36:20.754Z,12.68
2023-04-30T19:38:47.414Z,10.95
2023-04-30T19:41:14.255Z,10.07
2023-04-30T19:43:40.991Z,13.10
2023-04-30T19:46:07.795Z,10.48
2023-04-30T19:48:34.661Z,11.80
2023-04-30T19:51:04.400Z,11.52
2023-04-30T19:53:31.492Z,11.65
2023-04-30T19:55:59.796Z,12.27
2023-04-30T19:58:26.476Z,11.50
2023-04-30T20:00:53.610Z,11.38
2023-04-30T20:03:22.505Z,10.93
2023-04-30T20:05:49.202Z,12.13
2023-04-30T20:08:16.146Z,11.25
2023-04-30T20:10:43.903Z,12.63
2023-04-30T20:13:10.566Z,11.75
2023-04-30T20:15:37.283Z,11.50
2023-04-30T20:18:05.794Z,11.57
2023-04-30T20:20:32.809Z,12.57
2023-04-30T20:23:11.483Z,10.68
2023-04-30T20:25:38.357Z,11.32
2023-04-30T20:28:05.022Z,11.93
2023-04-30T20:30:33.406Z,11.55
2023-04-30T20:33:01.046Z,11.35
2023-04-30T20:35:27.749Z,11.88
2023-04-30T20:37:55.898Z,11.75
2023-04-30T20:40:22.708Z,10.60
2023-04-30T20:42:49.333Z,10.80
2023-04-30T20:45:15.986Z,11.55
2023-04-30T20:47:42.611Z,12.35
2023-04-30T20:50:09.853Z,11.77
2023-04-30T20:52:37.048Z,11.82
2023-04-30T20:55:04.104Z,10.55
2023-04-30T20:57:30.848Z,11.20
2023-04-30T20:59:57.723Z,11.75
2023-04-30T21:02:24.843Z,11.07
2023-04-30T21:04:51.589Z,10.60
2023-04-30T21:07:18.186Z,10.63
2023-04-30T21:09:44.920Z,12.32
2023-04-30T21:12:11.802Z,11.55
2023-04-30T21:14:38.739Z,11.38
2023-04-30T21:17:05.592Z,11.60
2023-04-30T21:19:33.872Z,11.52
2023-04-30T21:22:01.044Z,10.82
2023-04-30T21:24:31.055Z,11.05
2023-04-30T21:26:58.462Z,11.05
2023-04-30T21:29:25.129Z,10.32
2023-04-30T21:31:52.096Z,10.60
2023-04-30T21:34:20.050Z,10.77
2023-04-30T21:36:47.367Z,11.10
2023-04-30T21:39:14.191Z,11.82
2023-04-30T21:41:41.114Z,11.13
2023-04-30T21:44:07.863Z,10.82
2023-04-30T21:46:34.612Z,10.88
2023-04-30T21:49:01.300Z,10.75
2023-04-30T21:51:27.970Z,10.07
2023-04-30T21:53:54.773Z,11.55
2023-04-30T21:56:22.036Z,10.48
2023-04-30T21:58:48.871Z,10.88
2023-04-30T22:01:15.564Z,11.70
2023-04-30T22:03:42.672Z,11.30
2023-04-30T22:06:09.386Z,10.75
2023-04-30T22:08:36.014Z,11.38
2023-04-30T22:11:04.619Z,10.10
2023-04-30T22:13:31.473Z,10.50
2023-04-30T22:15:58.100Z,10.88
2023-04-30T22:18:25.254Z,10.20
2023-04-30T22:20:52.487Z,10.02
2023-04-30T22:23:21.334Z,11.02
2023-04-30T22:25:48.221Z,10.40
2023-04-30T22:28:16.983Z,11.90
2023-04-30T22:30:44.735Z,10.30
2023-04-30T22:33:11.546Z,10.05
2023-04-30T22:35:39.151Z,10.73
2023-04-30T22:38:06.941Z,9.75
2023-04-30T22:40:39.377Z,9.40
2023-04-30T22:43:06.530Z,12.07
2023-04-30T22:45:37.290Z,9.55
2023-04-30T22:48:04.808Z,9.93
2023-04-30T22:50:31.965Z,9.85
2023-04-30T22:52:59.735Z,10.40
2023-04-30T22:55:27.217Z,9.05
2023-04-30T22:57:53.986Z,10.40
2023-04-30T23:00:21.219Z,9.23
2023-04-30T23:02:47.977Z,9.73
2023-04-30T23:05:14.672Z,8.73
2023-04-30T23:07:41.309Z,8.75
2023-04-30T23:10:08.254Z,9.70
2023-04-30T23:12:35.683Z,8.45
2023-04-30T23:15:02.357Z,9.55
2023-04-30T23:17:29.027Z,8.63
2023-04-30T23:19:56.022Z,9.38
2023-04-30T23:22:22.849Z,9.85
2023-04-30T23:24:49.435Z,8.65
2023-04-30T23:27:17.762Z,10.13
2023-04-30T23:29:44.560Z,8.57
2023-04-30T23:32:11.300Z,8.77
2023-04-30T23:34:38.690Z,9.65
2023-04-30T23:37:05.521Z,8.25
2023-04-30T23:39:32.463Z,8.82
2023-04-30T23:41:59.044Z,8.50
2023-04-30T23:44:25.637Z,7.97
2023-04-30T23:46:52.324Z,8.35
2023-04-30T23:49:18.999Z,7.75
2023-04-30T23:51:45.835Z,8.43
2023-04-30T23:54:12.474Z,8.27
2023-04-30T23:56:39.129Z,7.65
2023-04-30T23:59:06.468Z,7.88
